Time;durP1;ratioP1;P1;durP2;ratioP2;P2;SDS_P1;SDS_P2;PMS_P1;PMS_P2;Temp;Humidity;BMP_temperature;BMP_pressure;BME280_temperature;BME280_humidity;BME280_pressure;Samples;Min_cycle;Max_cycle;Signal;HPM_P1;HPM_P2
2022/03/19 05:56:03;;;;;;;52.65;29.75;;;3.90;99.90;;;;;;6044653;23;20022;31
2022/03/19 05:58:32;;;;;;;52.33;30.70;;;4.00;99.90;;;;;;4912953;29;20198;-80
2022/03/19 06:00:59;;;;;;;50.40;31.17;;;4.10;99.90;;;;;;4916314;29;20135;-81
2022/03/19 06:03:26;;;;;;;46.63;28.25;;;4.10;99.90;;;;;;4920239;29;21724;-82
2022/03/19 06:05:53;;;;;;;52.33;29.98;;;4.10;99.90;;;;;;4914843;29;20136;-80
2022/03/19 06:08:20;;;;;;;52.90;30.90;;;4.00;99.90;;;;;;4919901;29;20135;-78
2022/03/19 06:10:47;;;;;;;50.00;30.40;;;4.00;99.90;;;;;;4922995;29;20139;-80
2022/03/19 06:13:15;;;;;;;52.70;30.23;;;4.10;99.90;;;;;;4916845;29;20083;-79
2022/03/19 06:15:43;;;;;;;50.40;29.80;;;4.10;99.90;;;;;;4916797;29;20379;-81
2022/03/19 06:18:11;;;;;;;54.58;30.83;;;4.20;99.90;;;;;;4915735;29;20209;-80
2022/03/19 06:20:38;;;;;;;52.72;30.73;;;4.10;99.90;;;;;;4916712;29;20058;-81
2022/03/19 06:23:05;;;;;;;52.00;30.08;;;4.10;99.90;;;;;;4916183;29;20134;-83
2022/03/19 06:25:34;;;;;;;53.42;30.33;;;4.10;99.90;;;;;;4916890;29;20139;-82
2022/03/19 06:28:02;;;;;;;52.90;30.80;;;4.10;99.90;;;;;;4916297;29;20130;-80
2022/03/19 06:30:31;;;;;;;51.00;29.92;;;4.10;99.90;;;;;;4914902;29;20044;-82
2022/03/19 06:33:00;;;;;;;50.97;28.88;;;4.20;99.90;;;;;;4916393;29;20052;-80
2022/03/19 06:38:08;;;;;;;49.38;29.48;;;4.20;99.90;;;;;;4908714;29;20139;-80
2022/03/19 06:40:37;;;;;;;50.65;29.48;;;4.20;99.90;;;;;;4919024;29;20044;-81
2022/03/19 06:43:04;;;;;;;48.78;29.20;;;4.20;99.90;;;;;;4917291;29;20052;-81
2022/03/19 06:45:31;;;;;;;50.80;29.77;;;4.30;99.90;;;;;;4916925;29;20139;-79
2022/03/19 06:47:59;;;;;;;46.53;28.48;;;4.30;99.90;;;;;;4917457;29;20558;-80
2022/03/19 06:50:27;;;;;;;49.38;29.58;;;4.30;99.90;;;;;;4917558;29;20123;-81
2022/03/19 06:52:54;;;;;;;53.70;30.30;;;4.30;99.90;;;;;;4916801;29;20091;-80
2022/03/19 06:55:21;;;;;;;51.47;29.92;;;4.30;99.90;;;;;;4918317;29;20143;-83
2022/03/19 06:57:48;;;;;;;53.72;30.38;;;4.40;99.90;;;;;;4920913;29;20087;-81
2022/03/19 07:00:16;;;;;;;48.15;29.50;;;4.30;99.90;;;;;;4917881;29;20074;-82
2022/03/19 07:02:47;;;;;;;50.58;30.85;;;4.40;99.90;;;;;;4920458;29;20058;-81
2022/03/19 07:05:20;;;;;;;48.58;29.75;;;4.50;99.90;;;;;;4916539;29;20399;-81
2022/03/19 07:07:47;;;;;;;47.10;29.50;;;4.50;99.90;;;;;;4901595;29;20060;-80
2022/03/19 07:10:15;;;;;;;49.40;30.10;;;4.50;99.90;;;;;;4916208;29;20437;-80
2022/03/19 07:12:44;;;;;;;48.85;28.45;;;4.50;99.90;;;;;;4919024;29;20044;-81
2022/03/19 07:15:14;;;;;;;52.13;29.17;;;4.60;99.90;;;;;;4919821;29;20104;-81
2022/03/19 07:17:43;;;;;;;48.40;29.25;;;4.70;99.90;;;;;;4919404;29;20071;-84
2022/03/19 07:20:12;;;;;;;46.63;27.98;;;4.60;99.90;;;;;;4920671;29;20108;-84
2022/03/19 07:22:52;;;;;;;52.45;30.17;;;4.80;99.90;;;;;;4918997;29;20131;-78
2022/03/19 07:25:24;;;;;;;50.08;28.95;;;4.80;99.90;;;;;;4903402;29;20117;-83
2022/03/19 07:27:53;;;;;;;47.55;28.52;;;4.80;99.90;;;;;;4919513;29;20421;-80
2022/03/19 07:30:21;;;;;;;47.70;28.25;;;4.90;99.90;;;;;;4919038;29;20135;-82
2022/03/19 07:32:49;;;;;;;48.40;27.35;;;5.10;99.90;;;;;;4916534;29;20087;-80
2022/03/19 07:35:16;;;;;;;48.30;29.15;;;5.10;99.90;;;;;;4918482;29;20131;-79
2022/03/19 07:37:44;;;;;;;45.97;27.58;;;5.10;99.90;;;;;;4918058;29;20130;-80
2022/03/19 07:41:45;;;;;;;54.90;30.73;;;5.20;99.90;;;;;;4918622;29;20147;-81
2022/03/19 07:43:05;;;;;;;50.70;28.77;;;5.20;99.90;;;;;;4918688;29;20052;-79
2022/03/19 07:45:32;;;;;;;45.25;27.80;;;5.30;99.90;;;;;;4918548;29;20074;-79
2022/03/19 07:48:00;;;;;;;50.13;29.95;;;5.40;99.90;;;;;;4918162;29;20143;-80
2022/03/19 07:50:28;;;;;;;43.88;27.38;;;5.40;99.90;;;;;;4902405;29;20048;-81
2022/03/19 07:52:56;;;;;;;48.13;28.27;;;5.50;99.90;;;;;;4920335;29;20082;-80
2022/03/19 07:55:25;;;;;;;44.95;26.88;;;5.50;99.90;;;;;;4929391;29;20076;-79
2022/03/19 07:57:52;;;;;;;48.50;27.98;;;5.60;99.90;;;;;;4901527;29;20056;-79
2022/03/19 08:00:21;;;;;;;48.30;28.08;;;5.70;99.90;;;;;;4918296;29;20071;-80
2022/03/19 08:02:48;;;;;;;47.67;29.08;;;5.70;99.60;;;;;;4918942;29;20060;-79
2022/03/19 08:05:15;;;;;;;44.55;26.55;;;5.80;99.90;;;;;;4918709;29;20151;-80
2022/03/19 08:07:42;;;;;;;42.88;26.70;;;5.80;99.60;;;;;;4917668;29;20538;-81
2022/03/19 08:10:12;;;;;;;42.67;25.08;;;5.80;98.80;;;;;;4919879;29;20139;-80
2022/03/19 08:12:43;;;;;;;40.10;24.48;;;5.90;98.70;;;;;;4921580;29;20052;-82
2022/03/19 08:15:11;;;;;;;41.20;25.13;;;6.00;98.60;;;;;;4919026;29;20044;-82
2022/03/19 08:17:41;;;;;;;38.38;23.73;;;6.10;98.40;;;;;;4921362;29;20048;-82
2022/03/19 08:20:10;;;;;;;40.55;23.63;;;6.20;98.30;;;;;;4920358;29;20060;-78
2022/03/19 08:22:38;;;;;;;36.58;22.63;;;6.30;98.00;;;;;;4918203;29;20134;-81
2022/03/19 08:25:07;;;;;;;38.70;23.60;;;6.40;97.40;;;;;;4919821;29;20048;-83
2022/03/19 08:27:35;;;;;;;41.40;24.63;;;6.40;97.00;;;;;;4919609;29;20056;-81
2022/03/19 08:30:04;;;;;;;36.95;22.85;;;6.50;96.60;;;;;;4906757;29;20052;-85
2022/03/19 08:32:32;;;;;;;37.53;23.40;;;6.50;95.60;;;;;;4923640;29;20478;-81
2022/03/19 08:34:59;;;;;;;39.55;23.77;;;6.50;95.50;;;;;;4921786;29;20108;-81
2022/03/19 08:37:27;;;;;;;38.58;23.10;;;6.60;95.00;;;;;;4921225;29;20143;-82
2022/03/19 08:42:39;;;;;;;38.78;22.88;;;6.70;93.90;;;;;;4921971;29;20068;-81
2022/03/19 08:45:09;;;;;;;42.53;24.80;;;6.60;94.90;;;;;;4903818;29;20532;-81
2022/03/19 08:47:36;;;;;;;39.45;23.80;;;6.70;95.50;;;;;;4918733;29;20143;-79
2022/03/19 08:50:04;;;;;;;39.03;23.75;;;6.80;95.40;;;;;;4917950;29;20094;-79
2022/03/19 08:52:33;;;;;;;38.90;23.95;;;6.90;95.60;;;;;;4918246;29;20588;-79
2022/03/19 08:55:01;;;;;;;40.42;23.85;;;7.00;95.20;;;;;;4919649;29;20061;-79
2022/03/19 08:57:29;;;;;;;36.90;23.85;;;6.90;94.20;;;;;;4919464;29;20074;-79
2022/03/19 08:59:56;;;;;;;35.53;22.88;;;7.00;94.40;;;;;;4920978;29;20143;-80
2022/03/19 09:02:24;;;;;;;37.95;23.50;;;7.10;94.10;;;;;;4921383;29;20103;-79
2022/03/19 09:04:51;;;;;;;35.38;22.35;;;7.10;94.00;;;;;;4920722;29;20569;-81
2022/03/19 09:07:19;;;;;;;36.00;22.27;;;7.10;93.20;;;;;;4919576;29;20138;-79
2022/03/19 09:09:52;;;;;;;37.00;22.38;;;7.10;93.10;;;;;;4920916;29;20052;-80
2022/03/19 09:12:22;;;;;;;34.22;21.30;;;7.20;93.30;;;;;;4921277;29;20407;-81
2022/03/19 09:14:49;;;;;;;31.52;20.45;;;7.30;93.10;;;;;;4920859;29;20059;-80
2022/03/19 09:17:17;;;;;;;36.55;22.10;;;7.40;92.30;;;;;;4921436;29;20091;-80
2022/03/19 09:19:45;;;;;;;33.25;21.13;;;7.50;91.90;;;;;;4920071;29;20060;-79
2022/03/19 09:22:13;;;;;;;36.58;22.55;;;7.40;91.40;;;;;;4919773;29;20151;-81
2022/03/19 09:24:40;;;;;;;36.53;21.85;;;7.50;91.50;;;;;;4920764;29;20593;-80
2022/03/19 09:27:07;;;;;;;33.38;21.52;;;7.50;91.00;;;;;;4921384;29;20134;-82
2022/03/19 09:29:34;;;;;;;34.22;21.02;;;7.60;90.00;;;;;;4921890;29;20131;-79
2022/03/19 09:32:02;;;;;;;34.03;21.20;;;7.70;89.50;;;;;;4920441;29;20151;-81
2022/03/19 09:34:30;;;;;;;30.25;19.75;;;7.80;88.90;;;;;;4921925;29;20414;-81
2022/03/19 09:36:58;;;;;;;28.92;19.23;;;7.90;88.70;;;;;;4921736;29;20048;-80
2022/03/19 09:39:25;;;;;;;34.33;20.88;;;8.00;87.30;;;;;;4921731;29;20135;-80
2022/03/19 09:41:53;;;;;;;28.40;19.05;;;8.00;86.30;;;;;;4920602;29;20486;-80
2022/03/19 09:44:25;;;;;;;31.10;19.13;;;8.00;85.10;;;;;;4920762;29;20055;-79
2022/03/19 09:46:53;;;;;;;35.42;21.27;;;8.00;83.20;;;;;;4920303;29;20139;-80
2022/03/19 09:49:20;;;;;;;32.90;20.17;;;8.10;83.20;;;;;;4920934;29;20075;-81
2022/03/19 09:51:54;;;;;;;30.50;19.92;;;8.10;83.80;;;;;;4917459;29;20123;-81
2022/03/19 09:54:23;;;;;;;31.08;19.40;;;8.20;82.60;;;;;;4919814;29;20054;-79
2022/03/19 09:56:50;;;;;;;31.88;20.15;;;8.40;82.70;;;;;;4921238;29;20063;-80
2022/03/19 09:59:18;;;;;;;32.13;20.58;;;8.40;82.40;;;;;;4921010;29;20104;-80
2022/03/19 10:01:47;;;;;;;32.78;21.75;;;8.50;82.10;;;;;;4921170;29;20144;-80
2022/03/19 10:04:17;;;;;;;28.85;19.30;;;8.40;81.10;;;;;;4920424;29;20052;-81
2022/03/19 10:09:44;;;;;;;32.97;20.70;;;8.70;82.60;;;;;;4921213;29;20402;-79
2022/03/19 10:12:18;;;;;;;32.30;19.85;;;8.60;78.80;;;;;;4921505;29;20164;-79
2022/03/19 10:14:51;;;;;;;33.38;21.05;;;8.60;78.80;;;;;;4922290;29;20052;-82
2022/03/19 10:17:29;;;;;;;30.08;18.95;;;8.60;79.70;;;;;;4921222;29;20143;-78
2022/03/19 10:20:00;;;;;;;33.38;20.90;;;8.80;79.80;;;;;;4921223;29;20087;-81
2022/03/19 10:22:29;;;;;;;33.60;20.67;;;8.80;78.60;;;;;;4921702;29;20052;-81
2022/03/19 10:25:01;;;;;;;37.30;21.50;;;8.80;78.50;;;;;;4923452;29;20112;-78
2022/03/19 10:27:34;;;;;;;33.33;20.30;;;8.90;76.80;;;;;;4920301;29;20067;-82
2022/03/19 10:30:08;;;;;;;32.20;20.85;;;8.90;77.20;;;;;;4921944;29;20048;-80
2022/03/19 10:32:36;;;;;;;32.55;21.63;;;9.00;77.00;;;;;;4918805;29;20453;-81
2022/03/19 10:35:03;;;;;;;33.95;22.17;;;9.00;76.40;;;;;;4917946;29;20139;-80
2022/03/19 10:37:36;;;;;;;34.70;21.95;;;9.00;76.10;;;;;;4922998;29;20143;-80
2022/03/19 10:40:07;;;;;;;32.13;20.35;;;9.10;76.30;;;;;;4922797;29;20052;-79
2022/03/19 10:42:42;;;;;;;31.63;21.25;;;9.20;74.40;;;;;;4920767;29;20136;-78
2022/03/19 10:45:12;;;;;;;32.28;20.80;;;9.20;75.00;;;;;;4921661;29;20076;-82
2022/03/19 10:47:41;;;;;;;33.70;22.02;;;9.30;73.80;;;;;;4922378;29;20052;-79
2022/03/19 10:50:09;;;;;;;33.97;21.98;;;9.30;74.10;;;;;;4922039;29;20056;-79
2022/03/19 10:52:37;;;;;;;34.63;22.25;;;9.40;73.10;;;;;;4921890;29;20132;-80
2022/03/19 10:55:07;;;;;;;33.35;21.95;;;9.50;73.40;;;;;;4922553;29;20513;-80
2022/03/19 10:57:36;;;;;;;34.72;21.98;;;9.40;71.10;;;;;;4922105;29;20430;-82
2022/03/19 11:00:06;;;;;;;32.60;21.50;;;9.40;71.90;;;;;;4921368;29;20052;-79
2022/03/19 11:02:33;;;;;;;33.90;21.67;;;9.50;72.00;;;;;;4920752;29;20159;-81
2022/03/19 11:05:03;;;;;;;32.83;21.80;;;9.70;73.50;;;;;;4926231;29;20060;-81
2022/03/19 11:07:35;;;;;;;31.98;21.38;;;9.70;70.30;;;;;;4926274;29;20056;-80
2022/03/19 11:10:07;;;;;;;34.17;21.88;;;9.60;70.30;;;;;;4923706;29;20052;-85
2022/03/19 11:12:40;;;;;;;31.17;20.20;;;9.80;70.00;;;;;;4923617;29;20131;-82
2022/03/19 11:15:10;;;;;;;35.30;21.85;;;9.90;68.90;;;;;;4922125;29;20048;-86
2022/03/19 11:17:40;;;;;;;31.42;21.20;;;9.90;68.00;;;;;;4927655;29;20048;-83
2022/03/19 11:20:11;;;;;;;32.17;22.08;;;9.90;69.40;;;;;;4907757;29;20402;-82
2022/03/19 11:22:41;;;;;;;32.55;21.55;;;10.00;69.50;;;;;;4903962;29;20059;-80
2022/03/19 11:25:30;;;;;;;32.47;21.92;;;9.90;69.80;;;;;;4920546;29;20115;-77
2022/03/19 11:28:01;;;;;;;32.70;20.35;;;10.00;70.50;;;;;;4920323;29;20098;-79
2022/03/19 11:30:30;;;;;;;29.10;19.15;;;10.20;68.90;;;;;;4919588;29;20138;-78
2022/03/19 11:33:16;;;;;;;32.60;19.42;;;10.10;66.30;;;;;;4920059;29;20135;-79
2022/03/19 11:35:47;;;;;;;28.45;17.73;;;10.10;66.60;;;;;;4921223;29;20139;-83
2022/03/19 11:38:17;;;;;;;27.50;17.17;;;10.30;66.50;;;;;;4921697;29;20135;-82
2022/03/19 11:40:47;;;;;;;28.13;17.67;;;10.30;65.10;;;;;;4920646;29;20083;-81
2022/03/19 11:43:22;;;;;;;22.23;15.40;;;10.40;64.60;;;;;;4920636;29;20490;-82
2022/03/19 11:45:55;;;;;;;22.58;14.48;;;10.40;63.50;;;;;;4922045;29;20090;-81
2022/03/19 11:48:50;;;;;;;26.23;16.23;;;10.60;64.20;;;;;;4919772;29;20090;-83
2022/03/19 11:51:31;;;;;;;22.42;13.00;;;10.50;62.30;;;;;;4887061;29;20127;-83
2022/03/19 11:54:01;;;;;;;19.25;13.30;;;10.50;61.80;;;;;;4920907;29;20135;-82
2022/03/19 11:57:08;;;;;;;19.77;12.68;;;10.60;60.20;;;;;;4919875;29;20087;-78
2022/03/19 11:59:47;;;;;;;20.75;12.25;;;10.50;58.50;;;;;;4920069;29;20048;-79
2022/03/19 12:02:15;;;;;;;21.33;12.50;;;10.70;59.10;;;;;;4919572;29;20143;-79
2022/03/19 12:04:47;;;;;;;20.98;13.20;;;10.80;60.40;;;;;;4919572;29;20060;-81
2022/03/19 12:07:45;;;;;;;22.80;13.85;;;10.90;59.00;;;;;;4920126;29;20059;-79
2022/03/19 12:10:15;;;;;;;21.48;13.15;;;10.90;60.20;;;;;;4918928;29;20116;-79
2022/03/19 12:12:46;;;;;;;21.38;13.65;;;11.00;61.00;;;;;;4917874;29;20044;-77
2022/03/19 12:15:50;;;;;;;19.35;12.30;;;11.10;59.20;;;;;;4918365;29;20482;-80
2022/03/19 12:18:24;;;;;;;;;;;11.20;59.70;;;;;;4919402;29;20052;-78
2022/03/19 12:20:52;;;;;;;19.65;12.75;;;11.30;57.60;;;;;;4918404;29;20017;-79
2022/03/19 12:23:19;;;;;;;18.73;11.82;;;11.30;57.30;;;;;;4919345;29;20513;-77
2022/03/19 12:25:54;;;;;;;19.52;12.57;;;11.60;57.60;;;;;;4916717;29;20127;-79
2022/03/19 12:28:22;;;;;;;;;;;11.70;57.00;;;;;;4916485;29;20048;-79
2022/03/19 12:30:49;;;;;;;21.85;13.55;;;11.70;57.40;;;;;;4915017;29;19973;-79
2022/03/19 12:33:17;;;;;;;20.38;12.45;;;11.70;57.50;;;;;;4917190;29;20083;-82
2022/03/19 12:35:46;;;;;;;18.77;12.63;;;11.60;58.00;;;;;;4918020;29;20052;-79
2022/03/19 12:38:25;;;;;;;17.65;11.73;;;11.60;58.30;;;;;;4916039;29;20078;-81
2022/03/19 12:43:51;;;;;;;18.85;11.43;;;12.10;56.40;;;;;;4913999;29;20048;-80
2022/03/19 12:46:24;;;;;;;19.33;11.25;;;12.10;56.30;;;;;;4915707;29;20135;-80
2022/03/19 12:48:52;;;;;;;17.83;11.82;;;12.10;56.20;;;;;;4918482;29;20140;-81
2022/03/19 12:51:26;;;;;;;16.65;10.60;;;11.40;55.70;;;;;;4917596;29;20124;-81
2022/03/19 12:53:54;;;;;;;16.27;11.00;;;11.20;55.60;;;;;;4901939;29;20048;-78
2022/03/19 12:56:24;;;;;;;15.60;9.68;;;11.20;55.10;;;;;;4919186;29;20143;-79
2022/03/19 12:58:56;;;;;;;18.65;11.80;;;11.20;55.30;;;;;;4923250;29;20099;-80
2022/03/19 13:01:26;;;;;;;16.98;10.95;;;11.20;56.40;;;;;;4917877;29;20139;-79
2022/03/19 13:03:55;;;;;;;16.67;11.23;;;11.70;56.70;;;;;;4918097;29;20091;-82
2022/03/19 13:06:34;;;;;;;18.38;10.80;;;11.90;53.80;;;;;;4912608;29;20405;-79
2022/03/19 13:09:02;;;;;;;15.70;9.68;;;11.80;52.10;;;;;;4916850;29;20048;-81
2022/03/19 13:11:29;;;;;;;14.98;9.07;;;11.70;52.30;;;;;;4901736;29;20443;-81
2022/03/19 13:14:04;;;;;;;16.73;9.20;;;12.10;52.80;;;;;;4921913;29;20134;-81
2022/03/19 13:16:36;;;;;;;16.55;9.50;;;12.10;51.30;;;;;;4901765;29;20051;-82
2022/03/19 13:19:05;;;;;;;12.77;7.85;;;12.20;50.90;;;;;;4883882;29;20062;-80
2022/03/19 13:21:35;;;;;;;14.38;8.93;;;12.30;48.60;;;;;;4916266;29;20067;-79
2022/03/19 13:24:03;;;;;;;12.50;7.90;;;12.80;48.50;;;;;;4917581;29;20442;-81
2022/03/19 13:26:32;;;;;;;11.60;7.15;;;13.00;47.60;;;;;;4917351;29;20131;-79
2022/03/19 13:29:03;;;;;;;12.60;7.95;;;13.20;47.30;;;;;;4918178;29;20151;-79
2022/03/19 13:31:35;;;;;;;14.57;8.43;;;13.10;47.50;;;;;;4917790;29;20119;-77
2022/03/19 13:34:04;;;;;;;14.98;8.80;;;13.30;48.40;;;;;;4917890;29;20135;-80
2022/03/19 13:36:35;;;;;;;14.90;8.20;;;13.80;48.70;;;;;;4918109;29;20139;-79
2022/03/19 13:39:03;;;;;;;13.93;8.20;;;14.10;48.00;;;;;;4914550;29;20051;-81
2022/03/19 13:41:38;;;;;;;11.45;7.25;;;13.90;48.60;;;;;;4916002;29;20079;-79
2022/03/19 13:44:07;;;;;;;10.77;6.53;;;13.30;46.60;;;;;;4916627;29;20406;-79
2022/03/19 13:46:34;;;;;;;12.13;7.13;;;13.20;46.40;;;;;;4916113;29;20460;-80
2022/03/19 13:49:14;;;;;;;12.07;7.25;;;12.80;47.60;;;;;;4915898;29;20131;-79
2022/03/19 13:51:48;;;;;;;12.43;7.32;;;13.00;48.30;;;;;;4916350;29;20055;-78
2022/03/19 13:54:16;;;;;;;11.73;7.40;;;13.60;47.40;;;;;;4916389;29;20064;-79
2022/03/19 13:56:56;;;;;;;12.75;7.47;;;14.10;45.60;;;;;;4914901;29;20056;-79
2022/03/19 13:59:31;;;;;;;13.18;7.28;;;13.70;44.50;;;;;;4916646;29;20060;-78
2022/03/19 14:02:02;;;;;;;;;;;13.70;44.20;;;;;;4917072;29;20083;-78
2022/03/19 14:04:29;;;;;;;15.40;7.97;;;14.40;43.30;;;;;;4916435;29;20025;-79
2022/03/19 14:06:56;;;;;;;10.50;6.38;;;15.30;42.30;;;;;;4916401;29;20139;-79
2022/03/19 14:09:23;;;;;;;9.13;6.10;;;15.60;43.00;;;;;;4915468;29;20486;-77
2022/03/19 14:11:51;;;;;;;9.85;6.25;;;15.70;41.20;;;;;;4915541;29;20139;-78
2022/03/19 14:14:18;;;;;;;8.93;5.85;;;15.40;41.00;;;;;;4916368;29;20539;-77
2022/03/19 14:16:59;;;;;;;9.23;5.35;;;15.30;40.20;;;;;;4917403;29;20048;-86
2022/03/19 14:19:28;;;;;;;8.65;4.70;;;16.30;38.80;;;;;;4917917;29;20130;-79
2022/03/19 14:21:55;;;;;;;7.55;4.60;;;17.30;38.70;;;;;;4916093;29;20056;-80
2022/03/19 14:24:26;;;;;;;8.80;5.30;;;18.80;37.30;;;;;;4899949;29;20044;-85
2022/03/19 14:26:56;;;;;;;8.50;4.60;;;17.30;37.80;;;;;;4917077;29;20056;-86
2022/03/19 14:29:24;;;;;;;8.25;4.70;;;17.00;35.20;;;;;;4916190;29;20052;-83
2022/03/19 14:31:52;;;;;;;8.65;5.43;;;17.90;34.00;;;;;;4915689;29;20484;-82
2022/03/19 14:34:21;;;;;;;6.97;4.88;;;17.70;34.80;;;;;;4917082;29;20469;-79
2022/03/19 14:36:48;;;;;;;8.30;5.20;;;17.90;36.30;;;;;;4918578;29;20048;-79
2022/03/19 14:39:15;;;;;;;7.43;5.10;;;19.10;35.70;;;;;;4913721;29;20406;-76
2022/03/19 14:41:43;;;;;;;9.57;5.63;;;19.80;34.20;;;;;;4915026;29;20128;-76
2022/03/19 14:44:16;;;;;;;9.63;5.25;;;19.60;32.90;;;;;;4915487;29;20087;-75
2022/03/19 14:46:43;;;;;;;9.23;5.15;;;19.90;34.30;;;;;;4915197;29;20058;-75
2022/03/19 14:49:10;;;;;;;7.25;5.18;;;19.10;33.40;;;;;;4915527;29;20134;-77
2022/03/19 14:51:38;;;;;;;7.13;4.82;;;19.00;34.50;;;;;;4915163;29;20517;-77
2022/03/19 14:54:05;;;;;;;7.38;4.80;;;19.40;34.30;;;;;;4917502;29;20516;-78
2022/03/19 14:56:34;;;;;;;10.30;5.10;;;18.40;34.30;;;;;;4907724;29;20152;-78
2022/03/19 14:59:01;;;;;;;8.85;4.82;;;16.30;37.00;;;;;;4922338;29;20505;-77
2022/03/19 15:01:29;;;;;;;7.25;4.32;;;16.30;41.00;;;;;;4916329;29;20062;-77
2022/03/19 15:03:56;;;;;;;7.47;4.75;;;15.90;38.50;;;;;;4914690;29;20048;-78
2022/03/19 15:06:25;;;;;;;8.35;5.10;;;16.50;38.10;;;;;;4914235;29;20131;-79
2022/03/19 15:08:56;;;;;;;7.93;5.25;;;18.10;37.10;;;;;;4920209;29;20414;-77
2022/03/19 15:11:23;;;;;;;8.95;5.30;;;17.30;37.90;;;;;;4921405;29;20107;-77
2022/03/19 15:13:50;;;;;;;10.70;7.07;;;16.60;39.30;;;;;;4922605;29;20144;-78
2022/03/19 15:16:18;;;;;;;9.02;5.40;;;15.80;39.80;;;;;;4913595;29;20131;-79
2022/03/19 15:18:45;;;;;;;7.57;4.40;;;16.70;40.20;;;;;;4912127;29;20486;-77
2022/03/19 15:21:14;;;;;;;7.20;4.72;;;18.30;35.90;;;;;;4912547;29;20048;-79
2022/03/19 15:23:41;;;;;;;6.85;3.97;;;18.90;34.00;;;;;;4916825;29;20468;-79
2022/03/19 15:26:10;;;;;;;9.25;4.55;;;18.50;34.20;;;;;;4921599;29;20523;-79
2022/03/19 15:28:40;;;;;;;7.00;3.90;;;18.40;33.40;;;;;;4918725;29;20136;-80
2022/03/19 15:31:08;;;;;;;8.18;4.47;;;19.00;34.80;;;;;;4920729;29;20048;-82
2022/03/19 15:33:35;;;;;;;7.05;3.70;;;19.20;35.60;;;;;;4920349;29;20108;-86
2022/03/19 15:36:06;;;;;;;5.95;3.85;;;19.00;36.00;;;;;;4922023;29;20056;-81
2022/03/19 15:38:34;;;;;;;8.60;3.75;;;17.40;39.00;;;;;;4920468;29;20048;-80
2022/03/19 15:41:01;;;;;;;6.20;3.55;;;15.20;44.80;;;;;;4920061;29;20139;-88
2022/03/19 15:43:29;;;;;;;6.45;3.20;;;16.50;44.40;;;;;;4909378;29;20099;-84
2022/03/19 15:45:57;;;;;;;6.63;3.50;;;17.50;43.40;;;;;;4919420;29;20108;-83
2022/03/19 15:48:24;;;;;;;6.35;3.80;;;17.20;43.20;;;;;;4918757;29;20131;-82
2022/03/19 15:50:51;;;;;;;7.72;3.70;;;17.50;43.80;;;;;;4918356;29;20080;-72
2022/03/19 15:53:19;;;;;;;6.63;3.45;;;16.50;43.30;;;;;;4921315;29;20111;-88
2022/03/19 15:55:46;;;;;;;7.30;3.45;;;17.00;44.30;;;;;;4919901;29;20132;-84
2022/03/19 15:58:13;;;;;;;5.95;3.67;;;15.40;45.40;;;;;;4920507;29;20155;-83
2022/03/19 16:00:42;;;;;;;6.22;3.30;;;16.10;45.80;;;;;;4919111;29;20075;-88
2022/03/19 16:03:09;;;;;;;7.05;3.95;;;16.40;46.20;;;;;;4903116;29;20078;-86
2022/03/19 16:05:36;;;;;;;5.95;3.40;;;15.90;45.30;;;;;;4920303;29;20123;-84
2022/03/19 16:08:04;;;;;;;5.57;3.40;;;16.20;46.30;;;;;;4919707;29;20462;-84
2022/03/19 16:10:31;;;;;;;7.72;3.67;;;15.90;46.10;;;;;;4915860;29;20058;-80
2022/03/19 16:12:59;;;;;;;6.57;3.95;;;15.00;48.20;;;;;;4919731;29;20135;-85
2022/03/19 16:15:26;;;;;;;7.00;4.10;;;15.40;48.00;;;;;;4919044;29;20142;-88
2022/03/19 16:17:54;;;;;;;6.18;3.60;;;15.80;47.80;;;;;;4920616;29;20052;-78
2022/03/19 16:20:22;;;;;;;6.75;3.80;;;15.50;47.10;;;;;;4919522;29;20091;-78
2022/03/19 16:22:51;;;;;;;5.57;3.58;;;14.80;47.70;;;;;;4920343;29;20463;-79
2022/03/19 16:25:18;;;;;;;6.10;3.88;;;14.70;48.00;;;;;;4920340;29;20498;-80
2022/03/19 16:27:46;;;;;;;7.47;4.30;;;14.70;48.90;;;;;;4919649;29;20138;-80
2022/03/19 16:30:13;;;;;;;6.97;4.47;;;14.50;49.70;;;;;;4920760;29;20059;-79
2022/03/19 16:32:42;;;;;;;8.00;4.45;;;15.10;48.60;;;;;;4920931;29;20551;-78
2022/03/19 16:35:12;;;;;;;7.10;4.55;;;15.60;48.00;;;;;;4920032;29;20052;-79
2022/03/19 16:37:39;;;;;;;9.02;5.15;;;15.60;48.20;;;;;;4920057;29;20134;-79
2022/03/19 16:40:08;;;;;;;8.75;5.30;;;14.60;49.90;;;;;;4918777;29;20055;-81
2022/03/19 16:42:35;;;;;;;8.23;4.95;;;14.00;51.50;;;;;;4918030;29;20139;-78
2022/03/19 16:45:03;;;;;;;7.82;5.18;;;14.60;50.70;;;;;;4918126;29;20080;-78
2022/03/19 16:47:30;;;;;;;9.00;5.13;;;15.00;50.70;;;;;;4918190;29;20131;-79
2022/03/19 16:49:57;;;;;;;9.38;5.90;;;14.20;50.90;;;;;;4917836;29;20134;-78
2022/03/19 16:52:26;;;;;;;9.20;6.03;;;13.60;52.20;;;;;;4917820;29;20135;-79
2022/03/19 16:54:53;;;;;;;9.25;5.75;;;13.10;52.70;;;;;;4917972;29;20048;-78
2022/03/19 16:57:20;;;;;;;9.50;5.85;;;13.60;53.20;;;;;;4917600;29;20147;-79
2022/03/19 16:59:48;;;;;;;8.23;5.47;;;12.50;54.70;;;;;;4917702;29;20148;-79
2022/03/19 17:02:15;;;;;;;8.68;5.20;;;12.40;55.70;;;;;;4917595;29;20139;-80
2022/03/19 17:04:42;;;;;;;9.95;6.10;;;12.50;55.20;;;;;;4919577;29;20116;-79
2022/03/19 17:07:09;;;;;;;8.20;5.57;;;12.20;56.50;;;;;;4919264;29;20144;-79
2022/03/19 17:09:37;;;;;;;9.85;5.97;;;12.00;57.80;;;;;;4917906;29;20143;-78
2022/03/19 17:12:06;;;;;;;9.52;6.35;;;11.70;59.00;;;;;;4917555;29;20143;-80
2022/03/19 17:14:33;;;;;;;10.52;6.47;;;11.20;60.00;;;;;;4916258;29;20051;-77
2022/03/19 17:17:00;;;;;;;8.77;6.15;;;11.10;60.50;;;;;;4917286;29;20577;-79
2022/03/19 17:19:28;;;;;;;10.00;6.15;;;10.80;61.90;;;;;;4917746;29;20048;-81
2022/03/19 17:21:55;;;;;;;10.60;6.82;;;10.60;62.90;;;;;;4917652;29;20084;-79
2022/03/19 17:24:22;;;;;;;12.18;7.25;;;9.90;63.90;;;;;;4918484;29;20581;-79
2022/03/19 17:26:50;;;;;;;11.65;7.10;;;9.40;66.30;;;;;;4919707;29;20111;-79
2022/03/19 17:29:18;;;;;;;10.93;7.03;;;9.30;69.00;;;;;;4917547;29;20134;-79
2022/03/19 17:31:45;;;;;;;10.88;6.80;;;9.00;70.70;;;;;;4916126;29;20214;-81
2022/03/19 17:34:12;;;;;;;8.95;6.25;;;9.00;71.90;;;;;;4917693;29;20130;-81
2022/03/19 17:36:39;;;;;;;10.35;7.15;;;9.10;74.40;;;;;;4917577;29;20139;-79
2022/03/19 17:39:06;;;;;;;12.82;7.43;;;9.20;75.10;;;;;;4917385;29;20048;-80
2022/03/19 17:41:34;;;;;;;10.73;6.93;;;8.90;77.00;;;;;;4917424;29;20083;-78
2022/03/19 17:44:02;;;;;;;9.27;5.93;;;8.70;80.10;;;;;;4917310;29;20189;-82
2022/03/19 17:46:29;;;;;;;10.98;6.85;;;8.80;81.60;;;;;;4899797;29;20088;-81
2022/03/19 17:48:57;;;;;;;10.88;6.63;;;8.50;84.40;;;;;;4920483;29;20048;-80
2022/03/19 17:51:24;;;;;;;11.60;6.80;;;8.20;86.50;;;;;;4916410;29;20151;-81
2022/03/19 17:53:53;;;;;;;10.43;6.38;;;8.30;88.50;;;;;;4918414;29;20561;-81
2022/03/19 17:56:21;;;;;;;11.50;7.60;;;8.50;88.90;;;;;;4921166;29;20062;-79
2022/03/19 17:58:52;;;;;;;10.80;6.68;;;7.90;90.80;;;;;;4914614;29;20059;-80
2022/03/19 18:01:21;;;;;;;9.75;6.10;;;8.10;91.20;;;;;;4932102;29;20130;-81
2022/03/19 18:03:49;;;;;;;12.05;7.18;;;8.00;91.60;;;;;;4934163;29;20083;-81
2022/03/19 18:06:17;;;;;;;12.88;7.65;;;7.80;92.70;;;;;;4923211;29;20081;-80
2022/03/19 18:08:45;;;;;;;10.32;6.65;;;7.80;93.20;;;;;;4914852;29;20048;-81
2022/03/19 18:11:14;;;;;;;11.13;7.22;;;8.00;92.70;;;;;;4896712;29;20061;-79
2022/03/19 18:13:41;;;;;;;11.82;7.18;;;7.90;93.20;;;;;;4895641;29;20132;-81
2022/03/19 18:16:09;;;;;;;11.93;7.47;;;7.60;93.80;;;;;;4896149;29;20144;-79
2022/03/19 18:18:38;;;;;;;11.57;7.07;;;7.50;94.40;;;;;;4895679;29;20063;-80
2022/03/19 18:21:05;;;;;;;11.80;7.47;;;7.40;94.90;;;;;;4912696;29;20089;-80
2022/03/19 18:23:32;;;;;;;11.57;7.38;;;7.30;95.40;;;;;;4914404;29;20130;-82
2022/03/19 18:25:59;;;;;;;13.85;8.13;;;7.40;95.40;;;;;;4913490;29;20147;-78
2022/03/19 18:28:27;;;;;;;12.93;7.85;;;7.20;96.20;;;;;;4913276;29;20052;-83
2022/03/19 18:30:54;;;;;;;13.48;7.63;;;7.20;96.10;;;;;;4914619;29;20623;-86
2022/03/19 18:33:21;;;;;;;13.32;7.75;;;7.20;96.20;;;;;;4916731;29;20067;-84
2022/03/19 18:35:49;;;;;;;12.07;7.45;;;7.10;96.70;;;;;;4915719;29;20131;-81
2022/03/19 18:38:17;;;;;;;17.38;9.75;;;7.20;96.50;;;;;;4917355;29;20405;-82
2022/03/19 18:40:45;;;;;;;15.77;8.30;;;7.20;96.30;;;;;;4916629;29;20060;-82
2022/03/19 18:43:12;;;;;;;13.45;8.60;;;7.10;96.80;;;;;;4918133;29;20135;-81
2022/03/19 18:45:41;;;;;;;12.60;7.45;;;7.00;97.00;;;;;;4916705;29;20480;-83
2022/03/19 18:48:09;;;;;;;12.55;7.97;;;6.90;97.40;;;;;;4922868;29;20059;-82
2022/03/19 18:50:37;;;;;;;13.70;7.47;;;6.80;97.50;;;;;;4927021;29;20065;-84
2022/03/19 18:53:06;;;;;;;12.65;8.25;;;6.80;97.70;;;;;;4904124;29;20083;-83
2022/03/19 18:55:33;;;;;;;11.13;7.53;;;6.50;98.60;;;;;;4923794;29;20536;-83
2022/03/19 18:58:00;;;;;;;13.68;7.70;;;6.50;98.50;;;;;;4926843;29;20135;-82